Endeavor, Wisconsin
Current Conditions -  °F | °C
As of 1:10 AM on Saturday 20 Dec 2014 (Local Time) from KDLL Reporting Station
Overcast Overcast  
Wind Chill: 25°   Ceiling: 2800
Heat Index: 25°   Visibility: 7mi
Dew Point: 21°   Wind: 0mph
Humidity: 87%   Direction: NA
Pressure: 30.24"   Gusts: NA
Location:  43.72°N, 89.47°W
Report Text: KDLL 200710Z AUTO 00000KT 7SM OVC028 M04/M06 A3024 RMK AO2 T10411059
Loading
Personal Weather Stations






























Interactive Weather Map New forecast layout! Learn more

10-Day Weather Forecast

Advertisements
Track Severe Weather on mobile